createdAt,value
2022-09-21T00:00:09.713Z,61.25
2022-09-21T00:01:09.908Z,61.25
2022-09-21T00:02:09.798Z,61.16
2022-09-21T00:03:09.785Z,61.16
2022-09-21T00:04:09.856Z,61.16
2022-09-21T00:05:09.830Z,61.16
2022-09-21T00:06:09.873Z,61.18
2022-09-21T00:07:09.879Z,61.29
2022-09-21T00:08:09.866Z,61.18
2022-09-21T00:09:09.899Z,61.08
2022-09-21T00:10:09.930Z,61.18
2022-09-21T00:11:09.952Z,61.08
2022-09-21T00:12:09.979Z,61.18
2022-09-21T00:13:09.963Z,61.08
2022-09-21T00:14:10.004Z,61.08
2022-09-21T00:15:09.970Z,61.08
2022-09-21T00:16:10.076Z,61.08
2022-09-21T00:17:10.023Z,61.18
2022-09-21T00:18:10.031Z,61.08
2022-09-21T00:19:10.247Z,61.08
2022-09-21T00:20:10.074Z,60.98
2022-09-21T00:21:10.094Z,60.98
2022-09-21T00:22:10.129Z,61.18
2022-09-21T00:23:10.150Z,61.08
2022-09-21T00:24:10.154Z,61.08
2022-09-21T00:25:10.134Z,60.98
2022-09-21T00:26:10.176Z,60.88
2022-09-21T00:27:10.183Z,60.98
2022-09-21T00:28:10.210Z,60.98
2022-09-21T00:29:10.276Z,60.98
2022-09-21T00:30:10.254Z,60.78
2022-09-21T00:31:10.280Z,60.88
2022-09-21T00:32:10.320Z,61.08
2022-09-21T00:33:10.334Z,61.18
2022-09-21T00:34:10.363Z,61.18
2022-09-21T00:35:10.412Z,60.98
2022-09-21T00:36:10.420Z,60.88
2022-09-21T00:37:10.494Z,60.98
2022-09-21T00:38:10.473Z,60.98
2022-09-21T00:39:10.473Z,61.29
2022-09-21T00:40:10.553Z,60.98
2022-09-21T00:41:10.515Z,60.98
2022-09-21T00:42:10.523Z,60.98
2022-09-21T00:43:10.569Z,60.91
2022-09-21T00:44:10.603Z,60.88
2022-09-21T00:45:10.574Z,60.88
2022-09-21T00:46:10.683Z,60.88
2022-09-21T00:47:10.617Z,60.78
2022-09-21T00:48:10.637Z,60.81
2022-09-21T00:49:10.658Z,60.88
2022-09-21T00:50:10.690Z,60.78
2022-09-21T00:51:10.753Z,60.81
2022-09-21T00:52:10.739Z,60.81
2022-09-21T00:53:10.767Z,61.21
2022-09-21T00:54:10.810Z,60.81
2022-09-21T00:55:10.823Z,61.21
2022-09-21T00:56:10.847Z,60.81
2022-09-21T00:57:10.887Z,60.81
2022-09-21T00:58:10.910Z,60.81
2022-09-21T00:59:10.938Z,60.81
2022-09-21T01:00:10.960Z,60.91
2022-09-21T01:01:11.024Z,60.81
2022-09-21T01:02:11.028Z,60.81
2022-09-21T01:03:11.022Z,60.81
2022-09-21T01:04:11.033Z,61.41
2022-09-21T01:05:11.065Z,61.82
2022-09-21T01:06:11.096Z,61.72
2022-09-21T01:07:11.128Z,61.59
2022-09-21T01:08:11.152Z,61.69
2022-09-21T01:09:11.200Z,61.59
2022-09-21T01:10:11.188Z,61.49
2022-09-21T01:11:11.188Z,61.59
2022-09-21T01:12:11.215Z,61.69
2022-09-21T01:13:11.233Z,61.69
2022-09-21T01:14:11.266Z,61.79
2022-09-21T01:15:11.301Z,61.79
2022-09-21T01:16:11.358Z,61.99
2022-09-21T01:17:11.318Z,62.10
2022-09-21T01:18:11.350Z,62.10
2022-09-21T01:19:11.372Z,62.10
2022-09-21T01:20:11.403Z,62.20
2022-09-21T01:21:11.443Z,62.17
2022-09-21T01:22:11.463Z,62.17
2022-09-21T01:23:11.479Z,62.07
2022-09-21T01:24:11.524Z,62.17
2022-09-21T01:25:11.549Z,62.17
2022-09-21T01:26:11.588Z,62.17
2022-09-21T01:27:11.625Z,62.17
2022-09-21T01:28:11.587Z,62.27
2022-09-21T01:29:11.617Z,62.37
2022-09-21T01:30:11.639Z,62.37
2022-09-21T01:31:11.757Z,62.48
2022-09-21T01:32:11.681Z,62.48
2022-09-21T01:33:11.722Z,62.57
2022-09-21T01:34:11.748Z,62.78
2022-09-21T01:35:11.769Z,62.88
2022-09-21T01:36:11.757Z,62.98
2022-09-21T01:37:11.785Z,63.08
2022-09-21T01:38:11.802Z,63.08
2022-09-21T01:39:11.817Z,63.08
2022-09-21T01:40:11.888Z,63.18
2022-09-21T01:41:11.846Z,63.08
2022-09-21T01:42:11.906Z,63.08
2022-09-21T01:43:11.896Z,62.98
2022-09-21T01:44:11.890Z,63.08
2022-09-21T01:45:11.989Z,63.08
2022-09-21T01:46:11.913Z,62.98
2022-09-21T01:47:11.941Z,62.98
2022-09-21T01:48:11.994Z,63.18
2022-09-21T01:49:11.998Z,63.29
2022-09-21T01:50:12.030Z,63.18
2022-09-21T01:51:12.029Z,63.08
2022-09-21T01:52:12.047Z,63.08
2022-09-21T01:53:12.069Z,63.08
2022-09-21T01:54:12.093Z,63.29
2022-09-21T01:55:12.139Z,63.52
2022-09-21T01:56:12.120Z,63.62
2022-09-21T01:57:12.163Z,63.52
2022-09-21T01:58:12.212Z,63.62
2022-09-21T01:59:12.174Z,63.62
2022-09-21T02:00:12.205Z,63.72
2022-09-21T02:01:12.259Z,63.62
2022-09-21T02:02:12.300Z,63.62
2022-09-21T02:03:12.233Z,63.72
2022-09-21T02:04:12.275Z,63.82
2022-09-21T02:05:12.288Z,63.92
2022-09-21T02:06:12.322Z,64.03
2022-09-21T02:07:12.313Z,64.03
2022-09-21T02:08:12.335Z,64.23
2022-09-21T02:09:12.366Z,64.33
2022-09-21T02:10:12.402Z,64.33
2022-09-21T02:11:12.420Z,64.33
2022-09-21T02:12:16.881Z,64.23
2022-09-21T02:13:12.417Z,64.23
2022-09-21T02:14:12.467Z,64.23
2022-09-21T02:15:12.482Z,64.13
2022-09-21T02:16:12.620Z,64.03
2022-09-21T02:17:12.511Z,64.03
2022-09-21T02:18:12.532Z,63.92
2022-09-21T02:19:12.545Z,64.03
2022-09-21T02:20:12.576Z,63.92
2022-09-21T02:21:12.604Z,63.92
2022-09-21T02:22:12.598Z,63.82
2022-09-21T02:23:12.631Z,63.92
2022-09-21T02:24:12.643Z,64.03
2022-09-21T02:25:12.663Z,63.92
2022-09-21T02:26:12.696Z,63.82
2022-09-21T02:27:12.677Z,63.82
2022-09-21T02:28:12.718Z,63.82
2022-09-21T02:29:12.755Z,63.92
2022-09-21T02:30:12.836Z,64.03
2022-09-21T02:31:12.814Z,64.03
2022-09-21T02:32:12.792Z,64.13
2022-09-21T02:33:12.809Z,64.13
2022-09-21T02:34:12.839Z,64.15
2022-09-21T02:35:12.873Z,64.26
2022-09-21T02:36:12.915Z,64.26
2022-09-21T02:37:12.894Z,64.26
2022-09-21T02:38:12.919Z,64.15
2022-09-21T02:39:12.947Z,64.15
2022-09-21T02:40:13.056Z,64.26
2022-09-21T02:41:12.989Z,64.15
2022-09-21T02:42:12.965Z,64.26
2022-09-21T02:43:12.996Z,64.15
2022-09-21T02:44:13.020Z,64.26
2022-09-21T02:45:13.009Z,64.15
2022-09-21T02:46:13.262Z,64.15
2022-09-21T02:47:13.136Z,64.15
2022-09-21T02:48:13.063Z,64.15
2022-09-21T02:49:13.091Z,64.36
2022-09-21T02:50:13.134Z,64.26
2022-09-21T02:51:13.153Z,64.26
2022-09-21T02:52:13.188Z,64.06
2022-09-21T02:53:13.163Z,64.15
2022-09-21T02:54:13.188Z,64.15
2022-09-21T02:55:13.213Z,64.15
2022-09-21T02:56:13.240Z,64.06
2022-09-21T02:57:13.293Z,63.95
2022-09-21T02:58:13.268Z,63.95
2022-09-21T02:59:13.292Z,63.85
2022-09-21T03:00:13.319Z,64.06
2022-09-21T03:01:13.356Z,64.06
2022-09-21T03:02:13.457Z,64.15
2022-09-21T03:03:13.423Z,64.15
2022-09-21T03:04:13.382Z,64.26
2022-09-21T03:05:13.412Z,64.36
2022-09-21T03:06:13.438Z,64.15
2022-09-21T03:07:13.481Z,64.26
2022-09-21T03:08:13.478Z,64.26
2022-09-21T03:09:13.497Z,64.26
2022-09-21T03:10:13.517Z,64.36
2022-09-21T03:11:13.549Z,64.36
2022-09-21T03:12:13.578Z,64.36
2022-09-21T03:13:13.555Z,64.46
2022-09-21T03:14:13.583Z,64.36
2022-09-21T03:15:13.621Z,64.46
2022-09-21T03:16:13.694Z,64.46
2022-09-21T03:17:13.679Z,64.46
2022-09-21T03:18:13.683Z,64.46
2022-09-21T03:19:13.686Z,64.36
2022-09-21T03:20:13.706Z,64.15
2022-09-21T03:21:13.757Z,64.15
2022-09-21T03:22:13.770Z,64.15
2022-09-21T03:23:13.744Z,64.06
2022-09-21T03:24:13.768Z,63.85
2022-09-21T03:25:13.794Z,64.06
2022-09-21T03:26:13.821Z,64.06
2022-09-21T03:27:13.848Z,64.15
2022-09-21T03:28:13.828Z,64.15
2022-09-21T03:29:13.844Z,64.06
2022-09-21T03:30:13.879Z,63.95
2022-09-21T03:31:14.057Z,64.15
2022-09-21T03:32:13.898Z,64.26
2022-09-21T03:33:13.928Z,64.26
2022-09-21T03:34:13.970Z,64.06
2022-09-21T03:35:13.966Z,64.15
2022-09-21T03:36:13.989Z,63.95
2022-09-21T03:37:14.018Z,63.75
2022-09-21T03:38:14.038Z,63.65
2022-09-21T03:39:14.062Z,63.85
2022-09-21T03:40:14.112Z,63.85
2022-09-21T03:41:14.088Z,63.95
2022-09-21T03:42:14.108Z,63.75
2022-09-21T03:43:14.089Z,63.65
2022-09-21T03:44:14.130Z,63.65
2022-09-21T03:45:14.135Z,63.55
2022-09-21T03:46:14.166Z,63.45
2022-09-21T03:47:14.121Z,63.55
2022-09-21T03:48:14.153Z,63.68
2022-09-21T03:49:14.178Z,63.58
2022-09-21T03:50:14.244Z,63.78
2022-09-21T03:51:14.230Z,63.68
2022-09-21T03:52:14.203Z,63.68
2022-09-21T03:53:14.232Z,63.68
2022-09-21T03:54:14.245Z,63.78
2022-09-21T03:55:14.285Z,63.58
2022-09-21T03:56:14.313Z,63.45
2022-09-21T03:57:14.291Z,63.48
2022-09-21T03:58:14.343Z,63.58
2022-09-21T03:59:14.602Z,63.68
2022-09-21T04:00:14.382Z,63.58
2022-09-21T04:01:14.459Z,63.58
2022-09-21T04:02:14.422Z,63.48
2022-09-21T04:03:14.439Z,63.37
2022-09-21T04:04:14.465Z,63.24
2022-09-21T04:05:14.435Z,63.28
2022-09-21T04:06:14.441Z,63.28
2022-09-21T04:07:14.450Z,63.17
2022-09-21T04:08:14.464Z,63.28
2022-09-21T04:09:14.501Z,63.37
2022-09-21T04:10:14.529Z,63.28
2022-09-21T04:11:14.551Z,63.17
2022-09-21T04:12:14.534Z,63.17
2022-09-21T04:13:14.585Z,62.97
2022-09-21T04:14:14.549Z,63.07
2022-09-21T04:15:14.595Z,63.07
2022-09-21T04:16:14.618Z,63.07
2022-09-21T04:17:14.592Z,63.17
2022-09-21T04:18:14.607Z,63.17
2022-09-21T04:19:14.626Z,63.07
2022-09-21T04:20:14.651Z,62.87
2022-09-21T04:21:14.681Z,62.97
2022-09-21T04:22:14.689Z,62.97
2022-09-21T04:23:14.700Z,62.97
2022-09-21T04:24:14.694Z,62.97
2022-09-21T04:25:14.712Z,62.97
2022-09-21T04:26:14.732Z,62.87
2022-09-21T04:27:14.756Z,63.07
2022-09-21T04:28:14.795Z,62.97
2022-09-21T04:29:14.773Z,62.97
2022-09-21T04:30:14.815Z,62.87
2022-09-21T04:31:14.838Z,62.87
2022-09-21T04:32:14.854Z,62.87
2022-09-21T04:33:14.883Z,62.87
2022-09-21T04:34:14.924Z,62.76
2022-09-21T04:35:14.902Z,62.76
2022-09-21T04:36:14.936Z,63.10
2022-09-21T04:37:14.924Z,63.30
2022-09-21T04:38:14.973Z,63.40
2022-09-21T04:39:15.004Z,63.40
2022-09-21T04:40:15.092Z,63.30
2022-09-21T04:41:15.002Z,63.40
2022-09-21T04:42:15.025Z,63.30
2022-09-21T04:43:17.639Z,63.51
2022-09-21T04:44:15.103Z,63.51
2022-09-21T04:45:15.074Z,63.40
2022-09-21T04:46:15.185Z,63.17
2022-09-21T04:47:15.105Z,63.17
2022-09-21T04:48:15.130Z,63.07
2022-09-21T04:49:15.168Z,62.97
2022-09-21T04:50:15.193Z,62.97
2022-09-21T04:51:15.172Z,62.97
2022-09-21T04:52:18.970Z,62.76
2022-09-21T04:53:15.185Z,62.56
2022-09-21T04:54:15.243Z,62.76
2022-09-21T04:55:15.261Z,63.00
2022-09-21T04:56:15.269Z,63.00
2022-09-21T04:57:15.234Z,63.10
2022-09-21T04:58:15.263Z,63.20
2022-09-21T04:59:15.268Z,63.00
2022-09-21T05:01:41.270Z,63.10
2022-09-21T05:02:41.247Z,63.20
2022-09-21T05:03:41.344Z,63.07
2022-09-21T05:04:41.267Z,62.87
2022-09-21T05:05:41.289Z,62.76
2022-09-21T05:06:41.314Z,62.87
2022-09-21T05:07:41.297Z,62.87
2022-09-21T05:08:41.318Z,62.87
2022-09-21T05:09:41.396Z,62.76
2022-09-21T05:10:41.348Z,62.87
2022-09-21T05:11:41.377Z,62.87
2022-09-21T05:12:41.413Z,62.97
2022-09-21T05:13:41.425Z,62.87
2022-09-21T05:14:41.455Z,62.87
2022-09-21T05:15:41.497Z,62.87
2022-09-21T05:16:41.513Z,62.87
2022-09-21T05:17:41.541Z,62.76
2022-09-21T05:18:41.551Z,62.66
2022-09-21T05:19:41.591Z,62.66
2022-09-21T05:20:41.566Z,62.66
2022-09-21T05:21:41.601Z,62.66
2022-09-21T05:22:41.586Z,62.97
2022-09-21T05:23:41.614Z,62.87
2022-09-21T05:24:41.636Z,62.87
2022-09-21T05:25:41.674Z,63.00
2022-09-21T05:26:41.679Z,63.30
2022-09-21T05:27:41.704Z,63.30
2022-09-21T05:28:41.727Z,63.30
2022-09-21T05:29:41.692Z,63.30
2022-09-21T05:30:51.557Z,63.07
2022-09-21T05:31:41.784Z,63.07
2022-09-21T05:32:41.738Z,63.07
2022-09-21T05:33:41.772Z,63.07
2022-09-21T05:34:41.817Z,62.97
2022-09-21T05:35:41.926Z,63.07
2022-09-21T05:36:41.813Z,62.97
2022-09-21T05:37:41.844Z,62.87
2022-09-21T05:38:41.940Z,62.66
2022-09-21T05:39:41.906Z,62.66
2022-09-21T05:40:41.979Z,62.66
2022-09-21T05:41:41.961Z,62.53
2022-09-21T05:42:41.855Z,62.43
2022-09-21T05:43:41.922Z,62.43
2022-09-21T05:44:41.964Z,62.43
2022-09-21T05:45:45.937Z,62.66
2022-09-21T05:46:41.932Z,62.66
2022-09-21T05:47:41.946Z,62.56
2022-09-21T05:48:42.006Z,62.76
2022-09-21T05:49:43.233Z,62.56
2022-09-21T05:50:41.987Z,62.56
2022-09-21T05:51:42.018Z,62.56
2022-09-21T05:52:42.053Z,62.56
2022-09-21T05:53:42.085Z,62.66
2022-09-21T05:54:42.118Z,62.66
2022-09-21T05:55:42.121Z,62.66
2022-09-21T05:56:42.160Z,62.56
2022-09-21T05:57:42.227Z,62.66
2022-09-21T05:58:42.219Z,62.46
2022-09-21T05:59:42.204Z,62.56
2022-09-21T06:00:42.230Z,62.56
2022-09-21T06:01:42.234Z,62.46
2022-09-21T06:02:42.314Z,62.46
2022-09-21T06:03:42.264Z,62.56
2022-09-21T06:04:42.250Z,62.36
2022-09-21T06:05:42.254Z,62.36
2022-09-21T06:06:42.228Z,62.16
2022-09-21T06:07:42.292Z,62.16
2022-09-21T06:08:42.254Z,62.13
2022-09-21T06:09:43.361Z,62.16
2022-09-21T06:10:42.268Z,62.16
2022-09-21T06:11:42.229Z,62.16
2022-09-21T06:12:42.313Z,62.05
2022-09-21T06:13:42.321Z,62.05
2022-09-21T06:14:42.289Z,62.16
2022-09-21T06:15:42.319Z,62.05
2022-09-21T06:16:42.385Z,62.16
2022-09-21T06:17:42.337Z,62.05
2022-09-21T06:18:42.448Z,61.82
2022-09-21T06:19:42.384Z,61.85
2022-09-21T06:20:42.460Z,62.16
2022-09-21T06:21:42.415Z,63.24
2022-09-21T06:22:42.463Z,62.07
2022-09-21T06:23:42.464Z,62.65
2022-09-21T06:24:42.460Z,62.52
2022-09-21T06:25:42.515Z,62.11
2022-09-21T06:26:42.507Z,61.68
2022-09-21T06:27:42.509Z,61.27
2022-09-21T06:28:42.566Z,61.04
2022-09-21T06:29:42.529Z,60.84
2022-09-21T06:30:42.657Z,60.50
2022-09-21T06:31:42.558Z,60.30
2022-09-21T06:32:42.548Z,60.20
2022-09-21T06:33:47.409Z,60.07
2022-09-21T06:34:45.426Z,60.07
2022-09-21T06:35:42.632Z,59.84
2022-09-21T06:36:42.620Z,59.54
2022-09-21T06:37:42.639Z,59.34
2022-09-21T06:38:42.785Z,59.21
2022-09-21T06:39:47.680Z,59.11
2022-09-21T06:40:42.743Z,59.21
2022-09-21T06:41:42.743Z,59.00
2022-09-21T06:42:42.676Z,58.91
2022-09-21T06:43:42.688Z,58.67
2022-09-21T06:44:42.705Z,58.67
2022-09-21T06:45:42.826Z,58.47
2022-09-21T06:46:42.738Z,58.47
2022-09-21T06:47:42.697Z,58.25
2022-09-21T06:48:42.719Z,58.25
2022-09-21T06:49:42.865Z,58.25
2022-09-21T06:50:42.816Z,58.14
2022-09-21T06:51:42.791Z,58.14
2022-09-21T06:52:42.770Z,58.25
2022-09-21T06:53:42.827Z,58.14
2022-09-21T06:54:42.786Z,58.12
2022-09-21T06:55:42.757Z,57.81
2022-09-21T06:56:42.780Z,57.81
2022-09-21T06:57:42.861Z,57.71
2022-09-21T06:58:42.827Z,57.71
2022-09-21T06:59:42.858Z,57.61
2022-09-21T07:00:42.960Z,57.71
2022-09-21T07:01:43.047Z,57.51
2022-09-21T07:02:42.934Z,57.48
2022-09-21T07:03:42.962Z,57.38
2022-09-21T07:04:42.934Z,57.48
2022-09-21T07:05:42.963Z,57.38
2022-09-21T07:06:43.009Z,57.28
2022-09-21T07:07:42.976Z,57.18
2022-09-21T07:10:43.038Z,57.08
2022-09-21T07:11:43.068Z,56.95
2022-09-21T07:12:43.102Z,56.65
2022-09-21T07:13:43.072Z,56.65
2022-09-21T07:14:43.105Z,56.65
2022-09-21T07:15:43.172Z,56.55
2022-09-21T07:16:43.194Z,56.55
2022-09-21T07:17:43.825Z,56.45
2022-09-21T07:18:44.020Z,56.45
2022-09-21T07:19:43.153Z,56.24
2022-09-21T07:20:43.169Z,56.32
2022-09-21T07:21:43.207Z,56.22
2022-09-21T07:22:43.254Z,56.22
2022-09-21T07:23:43.210Z,56.12
2022-09-21T07:24:43.213Z,56.12
2022-09-21T07:25:43.877Z,56.02
2022-09-21T07:26:43.280Z,55.91
2022-09-21T07:27:43.320Z,55.91
2022-09-21T07:28:43.430Z,55.91
2022-09-21T07:29:43.307Z,55.82
2022-09-21T07:30:43.362Z,55.82
2022-09-21T07:31:43.394Z,55.69
2022-09-21T07:32:43.342Z,55.59
2022-09-21T07:33:43.357Z,55.69
2022-09-21T07:34:43.316Z,55.69
2022-09-21T07:35:43.353Z,55.69
2022-09-21T07:36:43.376Z,55.59
2022-09-21T07:37:43.414Z,55.39
2022-09-21T07:38:43.451Z,55.49
2022-09-21T07:39:43.424Z,55.49
2022-09-21T07:40:43.497Z,55.49
2022-09-21T07:41:43.475Z,55.29
2022-09-21T07:42:43.429Z,55.39
2022-09-21T07:43:43.422Z,55.39
2022-09-21T07:44:43.441Z,55.36
2022-09-21T07:45:43.555Z,55.26
2022-09-21T07:46:47.967Z,55.16
2022-09-21T07:47:43.475Z,55.26
2022-09-21T07:48:43.514Z,55.16
2022-09-21T07:49:43.554Z,55.06
2022-09-21T07:50:43.561Z,55.06
2022-09-21T07:51:43.584Z,55.06
2022-09-21T07:52:43.577Z,54.96
2022-09-21T07:53:43.619Z,54.96
2022-09-21T07:54:43.653Z,54.75
2022-09-21T07:55:43.675Z,54.75
2022-09-21T07:56:43.760Z,54.83
2022-09-21T07:57:43.747Z,54.83
2022-09-21T07:58:43.709Z,54.63
2022-09-21T07:59:43.801Z,54.63
2022-09-21T08:00:43.863Z,54.73
2022-09-21T08:01:43.810Z,54.83
2022-09-21T08:02:47.480Z,54.73
2022-09-21T08:03:43.806Z,54.63
2022-09-21T08:04:44.381Z,54.63
2022-09-21T08:05:43.946Z,54.63
2022-09-21T08:06:43.858Z,54.63
2022-09-21T08:07:43.882Z,54.63
2022-09-21T08:08:43.929Z,54.73
2022-09-21T08:09:43.903Z,54.63
2022-09-21T08:10:43.898Z,54.53
2022-09-21T08:11:43.944Z,54.53
2022-09-21T08:12:43.970Z,54.43
2022-09-21T08:13:43.966Z,54.53
2022-09-21T08:14:44.005Z,54.43
2022-09-21T08:15:49.915Z,54.43
2022-09-21T08:16:44.023Z,54.43
2022-09-21T08:17:44.155Z,54.33
2022-09-21T08:18:44.002Z,54.33
2022-09-21T08:19:44.312Z,54.30
2022-09-21T08:20:44.058Z,54.40
2022-09-21T08:21:44.058Z,54.30
2022-09-21T08:22:44.073Z,54.20
2022-09-21T08:23:44.024Z,54.30
2022-09-21T08:24:44.053Z,54.10
2022-09-21T08:25:44.095Z,54.00
2022-09-21T08:26:44.084Z,54.00
2022-09-21T08:27:44.073Z,54.10
2022-09-21T08:28:44.100Z,54.10
2022-09-21T08:29:44.118Z,54.00
2022-09-21T08:30:44.181Z,54.00
2022-09-21T08:31:44.176Z,54.10
2022-09-21T08:32:51.399Z,54.00
2022-09-21T08:33:44.225Z,53.80
2022-09-21T08:34:44.178Z,53.90
2022-09-21T08:35:44.287Z,53.90
2022-09-21T08:36:44.307Z,54.00
2022-09-21T08:37:44.331Z,53.90
2022-09-21T08:38:44.377Z,53.80
2022-09-21T08:39:44.257Z,53.77
2022-09-21T08:40:44.447Z,53.77
2022-09-21T08:41:44.298Z,53.77
2022-09-21T08:42:47.564Z,53.77
2022-09-21T08:43:44.355Z,53.88
2022-09-21T08:44:44.404Z,53.77
2022-09-21T08:45:44.425Z,53.77
2022-09-21T08:46:44.507Z,53.77
2022-09-21T08:47:44.431Z,53.77
2022-09-21T08:48:44.418Z,53.77
2022-09-21T08:49:44.465Z,53.67
2022-09-21T08:50:44.489Z,53.67
2022-09-21T08:51:44.554Z,53.67
2022-09-21T08:52:47.104Z,53.67
2022-09-21T08:53:44.621Z,53.67
2022-09-21T08:54:44.537Z,53.57
2022-09-21T08:55:44.586Z,53.57
2022-09-21T08:57:04.019Z,53.57
2022-09-21T08:57:44.640Z,53.47
2022-09-21T08:58:44.607Z,53.57
2022-09-21T08:59:44.669Z,53.47
2022-09-21T09:00:44.666Z,53.47
2022-09-21T09:01:44.761Z,53.45
2022-09-21T09:02:44.675Z,53.45
2022-09-21T09:03:44.665Z,53.45
2022-09-21T09:04:44.692Z,53.25
2022-09-21T09:05:44.759Z,53.34
2022-09-21T09:06:44.728Z,53.34
2022-09-21T09:07:44.778Z,53.25
2022-09-21T09:08:44.787Z,53.25
2022-09-21T09:09:44.845Z,53.25
2022-09-21T09:10:44.794Z,53.25
2022-09-21T09:11:44.838Z,53.25
2022-09-21T09:12:44.914Z,53.25
2022-09-21T09:13:45.868Z,53.34
2022-09-21T09:14:44.906Z,53.25
2022-09-21T09:15:44.960Z,53.25
2022-09-21T09:16:44.896Z,53.25
2022-09-21T09:17:44.940Z,53.25
2022-09-21T09:18:44.956Z,53.25
2022-09-21T09:19:44.956Z,53.34
2022-09-21T09:20:44.988Z,53.45
2022-09-21T09:21:44.997Z,53.42
2022-09-21T09:22:45.043Z,53.45
2022-09-21T09:23:45.067Z,53.52
2022-09-21T09:24:45.068Z,53.52
2022-09-21T09:25:45.058Z,53.52
2022-09-21T09:26:45.037Z,53.62
2022-09-21T09:27:45.080Z,53.62
2022-09-21T09:28:45.098Z,53.72
2022-09-21T09:29:45.074Z,53.72
2022-09-21T09:30:45.108Z,53.72
2022-09-21T09:31:45.221Z,53.72
2022-09-21T09:32:45.138Z,53.72
2022-09-21T09:33:45.153Z,53.72
2022-09-21T09:34:45.184Z,53.92
2022-09-21T09:35:45.168Z,53.92
2022-09-21T09:36:58.403Z,53.92
2022-09-21T09:37:45.226Z,53.82
2022-09-21T09:38:45.199Z,53.92
2022-09-21T09:39:46.920Z,53.92
2022-09-21T09:40:45.316Z,53.82
2022-09-21T09:41:45.269Z,53.92
2022-09-21T09:42:45.281Z,54.02
2022-09-21T09:43:45.212Z,54.02
2022-09-21T09:44:45.216Z,54.02
2022-09-21T09:45:45.267Z,54.13
2022-09-21T09:46:45.311Z,54.22
2022-09-21T09:47:45.215Z,54.33
2022-09-21T09:48:45.307Z,54.22
2022-09-21T09:49:45.300Z,54.33
2022-09-21T09:50:45.291Z,54.43
2022-09-21T09:51:45.313Z,54.43
2022-09-21T09:52:45.264Z,54.53
2022-09-21T09:53:45.536Z,54.53
2022-09-21T09:54:45.301Z,54.53
2022-09-21T09:55:45.319Z,54.63
2022-09-21T09:56:45.311Z,54.72
2022-09-21T09:57:45.329Z,54.72
2022-09-21T09:58:45.321Z,54.83
2022-09-21T09:59:45.306Z,54.93
2022-09-21T10:00:45.339Z,54.83
2022-09-21T10:01:45.419Z,54.93
2022-09-21T10:02:45.351Z,55.03
2022-09-21T10:03:45.346Z,55.13
2022-09-21T10:04:45.415Z,55.03
2022-09-21T10:05:45.400Z,55.03
2022-09-21T10:06:46.986Z,55.03
2022-09-21T10:07:45.402Z,55.13
2022-09-21T10:08:45.416Z,55.13
2022-09-21T10:09:45.422Z,55.03
2022-09-21T10:10:45.381Z,55.13
2022-09-21T10:11:45.426Z,55.13
2022-09-21T10:12:45.468Z,55.13
2022-09-21T10:13:45.525Z,55.13
2022-09-21T10:14:45.471Z,55.23
2022-09-21T10:15:45.476Z,55.23
2022-09-21T10:16:45.464Z,55.20
2022-09-21T10:17:45.560Z,55.33
2022-09-21T10:18:45.563Z,55.40
2022-09-21T10:19:45.544Z,55.40
2022-09-21T10:20:45.551Z,55.40
2022-09-21T10:21:48.761Z,55.40
2022-09-21T10:22:45.555Z,55.51
2022-09-21T10:23:45.520Z,55.51
2022-09-21T10:24:45.543Z,55.51
2022-09-21T10:25:45.563Z,55.60
2022-09-21T10:26:45.633Z,55.60
2022-09-21T10:27:45.626Z,55.60
2022-09-21T10:28:45.614Z,55.60
2022-09-21T10:29:45.665Z,55.60
2022-09-21T10:30:45.685Z,55.60
2022-09-21T10:31:45.699Z,55.60
2022-09-21T10:32:45.737Z,55.51
2022-09-21T10:33:45.662Z,55.51
2022-09-21T10:34:45.690Z,55.51
2022-09-21T10:35:45.670Z,55.51
2022-09-21T10:36:45.669Z,55.38
2022-09-21T10:37:45.678Z,55.38
2022-09-21T10:38:45.754Z,55.38
2022-09-21T10:39:45.738Z,55.28
2022-09-21T10:40:45.756Z,55.28
2022-09-21T10:41:45.739Z,55.38
2022-09-21T10:42:45.742Z,55.28
2022-09-21T10:43:45.742Z,55.28
2022-09-21T10:44:45.715Z,55.28
2022-09-21T10:45:45.769Z,55.28
2022-09-21T10:46:45.954Z,55.18
2022-09-21T10:47:45.768Z,55.18
2022-09-21T10:48:45.775Z,55.18
2022-09-21T10:49:45.764Z,55.18
2022-09-21T10:50:45.744Z,55.18
2022-09-21T10:51:45.774Z,55.18
2022-09-21T10:52:47.318Z,55.18
2022-09-21T10:53:45.817Z,55.18
2022-09-21T10:54:45.806Z,55.18
2022-09-21T10:55:58.449Z,55.18
2022-09-21T10:56:45.842Z,55.08
2022-09-21T10:57:45.940Z,55.05
2022-09-21T10:58:45.877Z,54.95
2022-09-21T10:59:45.879Z,54.95
2022-09-21T11:00:45.851Z,54.95
2022-09-21T11:01:46.038Z,54.85
2022-09-21T11:02:45.988Z,54.75
2022-09-21T11:03:45.944Z,54.75
2022-09-21T11:04:45.914Z,54.65
2022-09-21T11:05:45.949Z,54.55
2022-09-21T11:06:45.995Z,54.55
2022-09-21T11:07:45.959Z,54.55
2022-09-21T11:08:45.942Z,54.55
2022-09-21T11:09:45.968Z,54.65
2022-09-21T11:10:46.018Z,54.85
2022-09-21T11:11:46.026Z,54.95
2022-09-21T11:12:46.062Z,54.85
2022-09-21T11:13:46.116Z,54.75
2022-09-21T11:14:46.257Z,54.65
2022-09-21T11:15:46.184Z,54.55
2022-09-21T11:16:46.207Z,54.55
2022-09-21T11:17:46.158Z,54.55
2022-09-21T11:18:46.116Z,54.55
2022-09-21T11:19:46.136Z,54.55
2022-09-21T11:20:46.179Z,54.45
2022-09-21T11:21:46.201Z,54.55
2022-09-21T11:22:46.214Z,54.43
2022-09-21T11:23:46.190Z,54.75
2022-09-21T11:24:46.220Z,54.85
2022-09-21T11:25:46.245Z,54.85
2022-09-21T11:26:46.250Z,54.82
2022-09-21T11:27:47.487Z,54.72
2022-09-21T11:28:46.288Z,54.62
2022-09-21T11:29:46.309Z,54.62
2022-09-21T11:30:48.672Z,54.52
2022-09-21T11:31:46.299Z,54.62
2022-09-21T11:32:46.330Z,54.62
2022-09-21T11:33:46.393Z,54.62
2022-09-21T11:34:46.348Z,54.72
2022-09-21T11:35:46.388Z,54.72
2022-09-21T11:36:46.433Z,54.72
2022-09-21T11:37:46.619Z,54.62
2022-09-21T11:38:46.411Z,54.62
2022-09-21T11:39:46.390Z,54.52
2022-09-21T11:40:46.399Z,54.32
2022-09-21T11:41:46.442Z,54.43
2022-09-21T11:42:46.429Z,54.52
2022-09-21T11:43:46.422Z,54.62
2022-09-21T11:44:46.413Z,54.62
2022-09-21T11:45:50.387Z,54.62
2022-09-21T11:46:46.437Z,54.52
2022-09-21T11:47:46.465Z,54.52
2022-09-21T11:48:46.500Z,54.52
2022-09-21T11:49:46.508Z,54.52
2022-09-21T11:50:46.555Z,54.52
2022-09-21T11:51:46.541Z,54.52
2022-09-21T11:52:46.594Z,54.52
2022-09-21T11:53:46.599Z,54.52
2022-09-21T11:54:46.595Z,54.62
2022-09-21T11:55:46.615Z,54.62
2022-09-21T11:56:46.639Z,54.62
2022-09-21T11:57:46.647Z,54.62
2022-09-21T11:58:46.688Z,54.62
2022-09-21T11:59:46.658Z,54.52
2022-09-21T12:00:46.688Z,54.52
2022-09-21T12:01:46.712Z,54.52
2022-09-21T12:02:46.959Z,54.52
2022-09-21T12:03:46.785Z,54.52
2022-09-21T12:04:46.807Z,54.52
2022-09-21T12:05:46.854Z,54.52
2022-09-21T12:06:46.828Z,54.52
2022-09-21T12:07:46.807Z,54.52
2022-09-21T12:08:46.862Z,54.52
2022-09-21T12:09:46.841Z,54.52
2022-09-21T12:10:46.870Z,54.52
2022-09-21T12:11:46.896Z,54.52
2022-09-21T12:12:46.875Z,54.52
2022-09-21T12:13:46.893Z,54.52
2022-09-21T12:14:46.925Z,54.43
2022-09-21T12:15:46.957Z,54.52
2022-09-21T12:16:47.068Z,54.52
2022-09-21T12:17:47.001Z,54.52
2022-09-21T12:18:47.151Z,54.62
2022-09-21T12:19:47.008Z,54.52
2022-09-21T12:20:47.045Z,54.52
2022-09-21T12:21:47.052Z,54.62
2022-09-21T12:22:47.047Z,54.52
2022-09-21T12:23:47.116Z,54.52
2022-09-21T12:24:47.076Z,54.52
2022-09-21T12:25:47.089Z,54.62
2022-09-21T12:26:47.131Z,54.52
2022-09-21T12:27:47.132Z,54.62
2022-09-21T12:28:47.173Z,54.62
2022-09-21T12:29:47.155Z,54.62
2022-09-21T12:30:47.227Z,54.52
2022-09-21T12:31:47.184Z,54.43
2022-09-21T12:32:47.209Z,54.43
2022-09-21T12:33:47.249Z,54.32
2022-09-21T12:34:47.260Z,54.43
2022-09-21T12:35:47.334Z,54.32
2022-09-21T12:36:47.293Z,54.43
2022-09-21T12:37:47.345Z,54.32
2022-09-21T12:38:47.346Z,54.32
2022-09-21T12:39:47.340Z,54.32
2022-09-21T12:40:47.494Z,54.32
2022-09-21T12:41:47.356Z,54.32
2022-09-21T12:42:47.380Z,54.22
2022-09-21T12:43:47.396Z,54.32
2022-09-21T12:44:47.401Z,54.22
2022-09-21T12:45:47.517Z,54.22
2022-09-21T12:46:48.868Z,54.22
2022-09-21T12:47:47.446Z,54.22
2022-09-21T12:48:47.476Z,54.32
2022-09-21T12:49:47.509Z,54.32
2022-09-21T12:50:47.519Z,54.22
2022-09-21T12:51:47.528Z,54.32
2022-09-21T12:52:47.538Z,54.22
2022-09-21T12:53:50.885Z,54.22
2022-09-21T12:54:47.779Z,54.22
2022-09-21T12:55:47.601Z,54.32